createdAt,value
2018-05-23T00:02:26.789Z,18.10
2018-05-23T00:04:54.269Z,20.30
2018-05-23T00:07:21.722Z,21.97
2018-05-23T00:09:49.570Z,22.73
2018-05-23T00:12:17.024Z,19.53
2018-05-23T00:14:45.236Z,20.73
2018-05-23T00:17:12.682Z,20.13
2018-05-23T00:19:40.148Z,19.80
2018-05-23T00:22:07.609Z,22.47
2018-05-23T00:24:35.809Z,20.60
2018-05-23T00:27:03.249Z,19.63
2018-05-23T00:29:30.697Z,21.50
2018-05-23T00:31:58.143Z,20.20
2018-05-23T00:34:25.972Z,20.70
2018-05-23T00:36:53.812Z,22.07
2018-05-23T00:39:22.767Z,22.30
2018-05-23T00:41:50.969Z,23.90
2018-05-23T00:44:18.417Z,26.00
2018-05-23T00:46:45.849Z,26.10
2018-05-23T00:49:13.305Z,25.97
2018-05-23T00:51:40.789Z,27.73
2018-05-23T00:54:08.238Z,27.70
2018-05-23T00:56:35.686Z,28.70
2018-05-23T00:59:03.136Z,28.23
2018-05-23T01:01:30.588Z,27.60
2018-05-23T01:03:58.780Z,28.93
2018-05-23T01:06:26.239Z,31.33
2018-05-23T01:08:54.448Z,32.57
2018-05-23T01:11:22.372Z,31.80
2018-05-23T01:13:49.823Z,32.80
2018-05-23T01:16:17.276Z,34.93
2018-05-23T01:18:45.482Z,34.90
2018-05-23T01:21:12.942Z,34.03
2018-05-23T01:23:40.381Z,34.87
2018-05-23T01:26:07.827Z,34.50
2018-05-23T01:28:36.060Z,35.63
2018-05-23T01:31:03.516Z,35.53
2018-05-23T01:33:30.960Z,35.03
2018-05-23T01:35:58.429Z,34.67
2018-05-23T01:38:25.872Z,33.13
2018-05-23T01:40:54.089Z,30.60
2018-05-23T01:43:22.308Z,27.37
2018-05-23T01:45:49.782Z,36.30
2018-05-23T01:48:17.617Z,39.20
2018-05-23T01:50:45.077Z,41.50
2018-05-23T01:53:12.528Z,40.50
2018-05-23T01:55:41.323Z,40.23
2018-05-23T01:58:09.557Z,45.63
2018-05-23T02:00:37.013Z,42.40
2018-05-23T02:03:04.844Z,48.97
2018-05-23T02:05:33.061Z,42.27
2018-05-23T02:08:00.586Z,41.87
2018-05-23T02:10:28.798Z,42.83
2018-05-23T02:12:56.260Z,44.87
2018-05-23T02:15:24.478Z,46.97
2018-05-23T02:17:53.268Z,44.77
2018-05-23T02:20:21.128Z,43.67
2018-05-23T02:22:49.340Z,45.27
2018-05-23T02:25:16.789Z,45.77
2018-05-23T02:27:44.999Z,44.60
2018-05-23T02:30:12.440Z,41.60
2018-05-23T02:32:40.656Z,43.07
2018-05-23T02:35:08.888Z,44.00
2018-05-23T02:37:36.330Z,41.83
2018-05-23T02:40:03.773Z,43.70
2018-05-23T02:42:31.249Z,43.07
2018-05-23T02:44:58.693Z,44.57
2018-05-23T02:47:27.484Z,39.50
2018-05-23T02:49:55.709Z,41.60
2018-05-23T02:52:23.158Z,45.70
2018-05-23T02:54:50.596Z,51.67
2018-05-23T02:57:19.148Z,46.07
2018-05-23T02:59:46.594Z,49.43
2018-05-23T03:02:14.051Z,44.80
2018-05-23T03:04:41.512Z,45.97
2018-05-23T03:07:08.973Z,46.07
2018-05-23T03:09:37.556Z,45.30
2018-05-23T03:12:05.421Z,49.30
2018-05-23T03:14:33.262Z,46.60
2018-05-23T03:17:00.709Z,48.97
2018-05-23T03:19:28.165Z,46.87
2018-05-23T03:21:55.642Z,47.57
2018-05-23T03:24:23.832Z,45.73
2018-05-23T03:26:51.296Z,44.57
2018-05-23T03:29:18.748Z,46.47
2018-05-23T03:31:46.184Z,49.70
2018-05-23T03:34:14.024Z,46.30
2018-05-23T03:36:41.484Z,45.07
2018-05-23T03:39:08.921Z,44.87
2018-05-23T03:41:37.462Z,44.13
2018-05-23T03:44:04.910Z,44.77
2018-05-23T03:46:32.352Z,43.37
2018-05-23T03:49:00.876Z,38.47
2018-05-23T03:51:28.318Z,40.40
2018-05-23T03:53:56.548Z,40.30
2018-05-23T03:56:24.026Z,40.60
2018-05-23T03:58:51.474Z,40.90
2018-05-23T04:01:30.735Z,40.40
2018-05-23T04:04:10.028Z,40.63
2018-05-23T04:06:49.220Z,41.90
2018-05-23T04:09:16.658Z,42.70
2018-05-23T04:11:44.096Z,39.77
2018-05-23T04:14:11.552Z,41.97
2018-05-23T04:16:39.001Z,40.57
2018-05-23T04:19:07.216Z,39.57
2018-05-23T04:21:35.442Z,37.90
2018-05-23T04:24:02.963Z,42.17
2018-05-23T04:26:31.094Z,41.30
2018-05-23T04:28:58.760Z,43.20
2018-05-23T04:31:26.219Z,42.20
2018-05-23T04:33:54.059Z,37.90
2018-05-23T04:36:21.520Z,37.80
2018-05-23T04:38:50.312Z,39.57
2018-05-23T04:41:17.769Z,39.03
2018-05-23T04:43:45.228Z,38.50
2018-05-23T04:46:12.681Z,39.33
2018-05-23T04:48:40.174Z,39.13
2018-05-23T04:51:08.341Z,41.53
2018-05-23T04:53:37.128Z,42.80
2018-05-23T04:56:04.969Z,37.83
2018-05-23T04:58:33.204Z,39.43
2018-05-23T05:01:00.648Z,40.97
2018-05-23T05:03:28.089Z,39.03
2018-05-23T05:05:55.933Z,40.00
2018-05-23T05:08:23.369Z,41.00
2018-05-23T05:10:50.809Z,39.20
2018-05-23T05:13:19.028Z,40.43
2018-05-23T05:15:47.225Z,41.10
2018-05-23T05:18:14.669Z,40.37
2018-05-23T05:20:42.119Z,42.30
2018-05-23T05:23:10.329Z,41.03
2018-05-23T05:25:37.756Z,37.67
2018-05-23T05:28:05.207Z,38.27
2018-05-23T05:30:33.045Z,42.93
2018-05-23T05:33:00.486Z,40.00
2018-05-23T05:35:29.458Z,40.30
2018-05-23T05:37:56.913Z,39.70
2018-05-23T05:40:24.382Z,45.87
2018-05-23T05:42:51.857Z,44.27
2018-05-23T05:45:19.301Z,48.10
2018-05-23T05:47:46.749Z,43.60
2018-05-23T05:50:14.193Z,40.00
2018-05-23T05:52:42.026Z,39.33
2018-05-23T05:55:10.234Z,41.40
2018-05-23T05:57:37.717Z,40.83
2018-05-23T06:00:05.171Z,42.50
2018-05-23T06:02:33.961Z,41.70
2018-05-23T06:05:01.423Z,38.73
2018-05-23T06:07:28.856Z,40.13
2018-05-23T06:09:56.336Z,42.47
2018-05-23T06:12:24.515Z,42.77
2018-05-23T06:14:51.961Z,43.00
2018-05-23T06:17:19.410Z,43.50
2018-05-23T06:19:46.862Z,44.23
2018-05-23T06:22:14.366Z,43.90
2018-05-23T06:24:41.747Z,44.70
2018-05-23T06:27:09.201Z,43.93
2018-05-23T06:29:36.642Z,41.70
2018-05-23T06:32:04.082Z,41.13
2018-05-23T06:34:31.540Z,40.93
2018-05-23T06:36:59.750Z,41.90
2018-05-23T06:39:27.194Z,42.37
2018-05-23T06:41:54.665Z,43.00
2018-05-23T06:44:22.510Z,42.00
2018-05-23T06:46:49.965Z,42.43
2018-05-23T06:49:17.409Z,43.77
2018-05-23T06:51:44.860Z,45.67
2018-05-23T06:54:12.293Z,45.00
2018-05-23T06:56:39.752Z,45.50
2018-05-23T06:59:07.202Z,47.50
2018-05-23T07:01:35.417Z,49.83
2018-05-23T07:04:02.894Z,46.50
2018-05-23T07:06:30.338Z,45.27
2018-05-23T07:08:58.771Z,48.00
2018-05-23T07:11:26.227Z,44.00
2018-05-23T07:13:53.673Z,44.13
2018-05-23T07:16:21.199Z,47.37
2018-05-23T07:18:48.658Z,47.73
2018-05-23T07:21:16.111Z,46.97
2018-05-23T07:23:43.537Z,46.00
2018-05-23T07:26:10.997Z,46.40
2018-05-23T07:28:38.433Z,46.73
2018-05-23T07:31:05.886Z,48.90
2018-05-23T07:33:33.342Z,43.77
2018-05-23T07:36:00.799Z,46.60
2018-05-23T07:38:28.326Z,45.33
2018-05-23T07:40:55.688Z,41.70
2018-05-23T07:43:23.900Z,46.60
2018-05-23T07:45:51.421Z,46.90
2018-05-23T07:48:19.561Z,48.10
2018-05-23T07:50:48.509Z,46.83
2018-05-23T07:53:15.953Z,43.47
2018-05-23T07:55:44.185Z,46.97
2018-05-23T07:58:12.390Z,42.80
2018-05-23T08:00:39.837Z,41.47
2018-05-23T08:03:08.426Z,42.70
2018-05-23T08:05:37.003Z,44.67
2018-05-23T08:08:04.458Z,41.33
2018-05-23T08:10:31.927Z,41.47
2018-05-23T08:13:00.885Z,37.10
2018-05-23T08:15:28.340Z,38.00
2018-05-23T08:17:55.808Z,37.93
2018-05-23T08:20:23.324Z,39.17
2018-05-23T08:22:50.741Z,30.50
2018-05-23T08:25:18.593Z,26.40
2018-05-23T08:27:46.048Z,27.30
2018-05-23T08:30:13.493Z,29.90
2018-05-23T08:32:40.956Z,27.30
2018-05-23T08:35:08.396Z,32.07
2018-05-23T08:37:36.596Z,34.33
2018-05-23T08:40:04.818Z,33.43
2018-05-23T08:42:32.256Z,32.63
2018-05-23T08:44:59.693Z,32.60
2018-05-23T08:47:27.926Z,32.07
2018-05-23T08:49:55.373Z,31.67
2018-05-23T08:52:22.805Z,33.53
2018-05-23T08:54:51.027Z,32.57
2018-05-23T08:57:18.472Z,30.80
2018-05-23T08:59:46.669Z,30.60
2018-05-23T09:02:14.129Z,29.10
2018-05-23T09:04:41.985Z,25.33
2018-05-23T09:07:10.920Z,25.97
2018-05-23T09:09:38.369Z,26.80
2018-05-23T09:12:06.607Z,25.23
2018-05-23T09:14:34.039Z,25.30
2018-05-23T09:17:01.492Z,23.27
2018-05-23T09:19:29.387Z,23.20
2018-05-23T09:21:57.576Z,22.40
2018-05-23T09:24:25.818Z,21.43
2018-05-23T09:26:53.326Z,21.40
2018-05-23T09:29:20.756Z,21.67
2018-05-23T09:31:49.345Z,18.80
2018-05-23T09:34:16.791Z,14.10
2018-05-23T09:36:44.244Z,12.53
2018-05-23T09:39:11.733Z,14.43
2018-05-23T09:41:40.058Z,14.73
2018-05-23T09:44:08.261Z,15.47
2018-05-23T09:46:35.711Z,16.10
2018-05-23T09:49:03.913Z,16.30
2018-05-23T09:51:32.137Z,19.43
2018-05-23T09:54:00.350Z,20.10
2018-05-23T09:56:27.824Z,19.43
2018-05-23T09:58:56.046Z,18.50
2018-05-23T10:01:23.496Z,18.60
2018-05-23T10:03:51.700Z,17.40
2018-05-23T10:06:19.170Z,16.70
2018-05-23T10:08:46.629Z,17.57
2018-05-23T10:11:14.465Z,16.87
2018-05-23T10:13:41.919Z,13.60
2018-05-23T10:16:09.780Z,11.27
2018-05-23T10:18:37.228Z,11.10
2018-05-23T10:21:04.656Z,9.40
2018-05-23T10:23:32.864Z,8.83
2018-05-23T10:26:00.312Z,8.30
2018-05-23T10:28:29.029Z,7.43
2018-05-23T10:30:57.276Z,6.90
2018-05-23T10:33:24.787Z,6.50
2018-05-23T10:35:52.141Z,6.97
2018-05-23T10:38:20.360Z,6.47
2018-05-23T10:40:47.786Z,5.20
2018-05-23T10:43:16.360Z,6.27
2018-05-23T10:45:43.800Z,5.80
2018-05-23T10:48:11.236Z,5.20
2018-05-23T10:50:38.676Z,5.90
2018-05-23T10:53:06.898Z,5.70
2018-05-23T10:55:34.322Z,6.50
2018-05-23T10:58:01.757Z,5.70
2018-05-23T11:00:29.212Z,6.20
2018-05-23T11:02:56.666Z,6.00
2018-05-23T11:05:24.849Z,5.80
2018-05-23T11:07:52.318Z,6.13
2018-05-23T11:10:19.747Z,6.50
2018-05-23T11:12:47.175Z,6.60
2018-05-23T11:15:14.657Z,5.77
2018-05-23T11:17:42.058Z,6.17
2018-05-23T11:20:10.249Z,6.90
2018-05-23T11:22:38.474Z,6.03
2018-05-23T11:25:05.913Z,5.73
2018-05-23T11:27:34.137Z,6.50
2018-05-23T11:30:02.336Z,7.00
2018-05-23T11:32:29.769Z,7.07
2018-05-23T11:34:57.232Z,6.40
2018-05-23T11:37:24.674Z,5.90
2018-05-23T11:39:52.864Z,5.97
2018-05-23T11:42:21.082Z,5.60
2018-05-23T11:44:48.531Z,5.23
2018-05-23T11:47:15.967Z,5.30
2018-05-23T11:49:43.796Z,6.40
2018-05-23T11:52:11.268Z,6.60
2018-05-23T11:54:39.492Z,5.73
2018-05-23T11:57:08.224Z,5.77
2018-05-23T11:59:36.455Z,6.03
2018-05-23T12:02:04.653Z,6.00
2018-05-23T12:04:32.097Z,5.50
2018-05-23T12:06:59.553Z,4.33
2018-05-23T12:09:28.350Z,5.33
2018-05-23T12:11:55.802Z,5.03
2018-05-23T12:14:23.996Z,5.00
2018-05-23T12:16:51.827Z,5.00
2018-05-23T12:19:19.256Z,6.10
2018-05-23T12:21:46.740Z,6.00
2018-05-23T12:24:14.180Z,6.10
2018-05-23T12:26:41.612Z,6.80
2018-05-23T12:29:09.056Z,4.97
2018-05-23T12:31:36.888Z,6.00
2018-05-23T12:34:04.331Z,5.53
2018-05-23T12:36:32.532Z,5.90
2018-05-23T12:38:59.973Z,6.17
2018-05-23T12:41:28.908Z,6.33
2018-05-23T12:43:56.352Z,6.10
2018-05-23T12:46:24.556Z,5.67
2018-05-23T12:48:51.980Z,6.63
2018-05-23T12:51:19.437Z,6.10
2018-05-23T12:53:47.376Z,6.13
2018-05-23T12:56:14.799Z,6.07
2018-05-23T12:58:42.252Z,6.07
2018-05-23T13:01:09.677Z,5.93
2018-05-23T13:03:37.113Z,6.20
2018-05-23T13:06:05.784Z,5.70
2018-05-23T13:08:33.544Z,5.70
2018-05-23T13:11:00.972Z,5.60
2018-05-23T13:13:28.408Z,5.63
2018-05-23T13:15:55.852Z,5.97
2018-05-23T13:18:23.294Z,5.50
2018-05-23T13:20:50.732Z,6.87
2018-05-23T13:23:18.939Z,6.83
2018-05-23T13:25:46.376Z,6.40
2018-05-23T13:28:13.812Z,6.63
2018-05-23T13:30:41.252Z,6.23
2018-05-23T13:33:08.693Z,5.70
2018-05-23T13:35:36.901Z,5.80
2018-05-23T13:38:04.340Z,5.57
2018-05-23T13:40:32.543Z,6.50
2018-05-23T13:42:59.986Z,6.40
2018-05-23T13:45:28.199Z,6.13
2018-05-23T13:47:55.640Z,6.37
2018-05-23T13:50:23.549Z,6.10
2018-05-23T13:52:50.961Z,7.10
2018-05-23T13:55:18.389Z,6.70
2018-05-23T13:57:45.824Z,5.93
2018-05-23T14:00:14.019Z,6.03
2018-05-23T14:02:41.448Z,6.53
2018-05-23T14:05:08.904Z,5.53
2018-05-23T14:07:36.336Z,6.90
2018-05-23T14:10:03.770Z,6.00
2018-05-23T14:12:31.987Z,5.20
2018-05-23T14:14:59.424Z,5.43
2018-05-23T14:17:28.356Z,5.40
2018-05-23T14:19:55.797Z,5.60
2018-05-23T14:22:23.999Z,6.20
2018-05-23T14:24:51.827Z,6.00
2018-05-23T14:27:19.277Z,6.30
2018-05-23T14:29:47.109Z,5.97
2018-05-23T14:32:15.324Z,5.57
2018-05-23T14:34:43.207Z,5.70
2018-05-23T14:37:11.792Z,6.30
2018-05-23T14:39:40.006Z,6.20
2018-05-23T14:42:08.213Z,6.43
2018-05-23T14:44:35.669Z,6.53
2018-05-23T14:47:03.101Z,5.87
2018-05-23T14:49:30.558Z,6.17
2018-05-23T14:51:57.978Z,6.53
2018-05-23T14:54:25.826Z,6.83
2018-05-23T14:56:54.031Z,6.90
2018-05-23T14:59:21.972Z,6.80
2018-05-23T15:01:50.156Z,5.97
2018-05-23T15:04:17.601Z,5.67
2018-05-23T15:06:45.799Z,5.57
2018-05-23T15:09:13.219Z,5.10
2018-05-23T15:11:40.692Z,4.87
2018-05-23T15:14:08.512Z,5.20
2018-05-23T15:16:35.960Z,5.50
2018-05-23T15:19:04.175Z,5.63
2018-05-23T15:21:31.608Z,6.27
2018-05-23T15:23:59.814Z,5.60
2018-05-23T15:26:27.257Z,6.80
2018-05-23T15:28:54.691Z,6.57
2018-05-23T15:31:22.196Z,5.93
2018-05-23T15:33:49.569Z,7.57
2018-05-23T15:36:17.404Z,6.40
2018-05-23T15:38:44.835Z,6.47
2018-05-23T15:41:12.289Z,7.40
2018-05-23T15:43:40.496Z,7.77
2018-05-23T15:46:08.690Z,6.37
2018-05-23T15:48:36.139Z,5.70
2018-05-23T15:51:04.018Z,6.70
2018-05-23T15:53:32.196Z,6.63
2018-05-23T15:56:00.040Z,6.80
2018-05-23T15:58:27.472Z,7.50
2018-05-23T16:00:54.905Z,6.77
2018-05-23T16:03:22.389Z,7.57
2018-05-23T16:05:49.823Z,6.03
2018-05-23T16:08:17.653Z,8.00
2018-05-23T16:10:45.497Z,7.97
2018-05-23T16:13:13.637Z,6.83
2018-05-23T16:15:41.079Z,7.43
2018-05-23T16:18:09.291Z,7.27
2018-05-23T16:20:36.793Z,6.63
2018-05-23T16:23:04.157Z,7.13
2018-05-23T16:25:32.363Z,6.57
2018-05-23T16:28:00.580Z,6.40
2018-05-23T16:30:28.763Z,6.50
2018-05-23T16:32:56.389Z,6.40
2018-05-23T16:35:25.413Z,6.87
2018-05-23T16:37:52.838Z,6.20
2018-05-23T16:40:20.272Z,6.60
2018-05-23T16:42:47.713Z,5.70
2018-05-23T16:45:15.184Z,7.10
2018-05-23T16:47:42.622Z,6.77
2018-05-23T16:50:10.044Z,7.30
2018-05-23T16:52:38.246Z,6.73
2018-05-23T16:55:05.699Z,6.20
2018-05-23T16:57:34.272Z,6.80
2018-05-23T17:00:01.714Z,6.00
2018-05-23T17:02:29.933Z,6.50
2018-05-23T17:04:57.372Z,6.30
2018-05-23T17:07:25.577Z,6.10
2018-05-23T17:09:53.020Z,5.87
2018-05-23T17:12:20.904Z,8.17
2018-05-23T17:14:48.374Z,5.57
2018-05-23T17:17:16.570Z,6.50
2018-05-23T17:19:44.004Z,6.33
2018-05-23T17:22:12.305Z,5.63
2018-05-23T17:24:40.518Z,6.07
2018-05-23T17:27:08.083Z,5.40
2018-05-23T17:29:35.528Z,6.10
2018-05-23T17:32:03.729Z,6.53
2018-05-23T17:34:31.164Z,6.40
2018-05-23T17:36:58.633Z,5.37
2018-05-23T17:39:26.077Z,6.63
2018-05-23T17:41:53.508Z,6.30
2018-05-23T17:44:21.708Z,6.33
2018-05-23T17:46:49.174Z,6.43
2018-05-23T17:49:17.816Z,4.90
2018-05-23T17:51:45.261Z,7.23
2018-05-23T17:54:13.549Z,6.70
2018-05-23T17:56:40.988Z,6.00
2018-05-23T17:59:09.188Z,6.20
2018-05-23T18:01:37.030Z,5.60
2018-05-23T18:04:04.852Z,5.60
2018-05-23T18:06:32.381Z,5.30
2018-05-23T18:08:59.735Z,5.83
2018-05-23T18:11:27.959Z,5.60
2018-05-23T18:13:55.372Z,5.53
2018-05-23T18:16:24.321Z,6.17
2018-05-23T18:18:52.540Z,6.73
2018-05-23T18:21:19.996Z,5.73
2018-05-23T18:23:47.456Z,5.43
2018-05-23T18:26:15.657Z,5.43
2018-05-23T18:28:43.869Z,5.43
2018-05-23T18:31:12.105Z,5.80
2018-05-23T18:33:41.052Z,6.07
2018-05-23T18:36:08.481Z,6.33
2018-05-23T18:38:35.921Z,5.50
2018-05-23T18:41:03.361Z,6.00
2018-05-23T18:43:30.930Z,6.40
2018-05-23T18:45:58.264Z,5.83
2018-05-23T18:48:26.456Z,6.40
2018-05-23T18:50:54.332Z,7.30
2018-05-23T18:53:21.785Z,7.10
2018-05-23T18:55:50.347Z,6.83
2018-05-23T18:58:18.551Z,6.87
2018-05-23T19:00:45.997Z,6.70
2018-05-23T19:03:13.437Z,7.10
2018-05-23T19:05:42.386Z,7.23
2018-05-23T19:08:09.845Z,6.90
2018-05-23T19:10:37.256Z,6.43
2018-05-23T19:13:04.735Z,6.50
2018-05-23T19:15:32.152Z,6.90
2018-05-23T19:17:59.590Z,7.53
2018-05-23T19:20:27.787Z,6.63
2018-05-23T19:22:56.016Z,6.80
2018-05-23T19:25:23.457Z,7.47
2018-05-23T19:27:51.286Z,8.77
2018-05-23T19:30:18.738Z,8.43
2018-05-23T19:32:46.176Z,7.73
2018-05-23T19:35:13.618Z,8.17
2018-05-23T19:37:41.834Z,7.83
2018-05-23T19:40:09.265Z,7.07
2018-05-23T19:42:38.217Z,7.60
2018-05-23T19:45:05.655Z,7.77
2018-05-23T19:47:33.089Z,9.57
2018-05-23T19:50:00.548Z,8.30
2018-05-23T19:52:28.078Z,8.63
2018-05-23T19:54:55.442Z,8.90
2018-05-23T19:57:22.888Z,9.33
2018-05-23T19:59:51.095Z,8.70
2018-05-23T20:02:18.524Z,9.60
2018-05-23T20:04:46.728Z,8.80
2018-05-23T20:07:19.192Z,8.63
2018-05-23T20:09:46.642Z,8.80
2018-05-23T20:12:14.078Z,9.37
2018-05-23T20:14:41.543Z,9.20
2018-05-23T20:17:09.751Z,9.37
2018-05-23T20:19:37.187Z,8.77
2018-05-23T20:22:04.624Z,8.13
2018-05-23T20:24:32.828Z,9.67
2018-05-23T20:27:00.280Z,8.60
2018-05-23T20:29:28.549Z,9.43
2018-05-23T20:31:55.978Z,8.57
2018-05-23T20:34:23.411Z,9.23
2018-05-23T20:36:51.629Z,10.07
2018-05-23T20:39:19.061Z,8.60
2018-05-23T20:41:48.022Z,9.77
2018-05-23T20:44:15.495Z,9.10
2018-05-23T20:46:42.951Z,9.80
2018-05-23T20:49:10.395Z,9.50
2018-05-23T20:51:37.845Z,10.30
2018-05-23T20:54:06.632Z,9.33
2018-05-23T20:56:34.844Z,9.60
2018-05-23T20:59:02.301Z,10.07
2018-05-23T21:01:29.786Z,11.10
2018-05-23T21:03:57.965Z,10.80
2018-05-23T21:06:26.197Z,9.97
2018-05-23T21:08:53.642Z,10.40
2018-05-23T21:11:21.081Z,11.60
2018-05-23T21:13:48.537Z,9.90
2018-05-23T21:16:15.983Z,10.10
2018-05-23T21:18:43.425Z,11.07
2018-05-23T21:21:10.880Z,10.50
2018-05-23T21:23:38.316Z,9.40
2018-05-23T21:26:06.159Z,11.30
2018-05-23T21:28:33.992Z,11.00
2018-05-23T21:31:01.436Z,10.40
2018-05-23T21:33:29.648Z,10.93
2018-05-23T21:35:57.313Z,11.23
2018-05-23T21:38:24.751Z,11.43
2018-05-23T21:40:52.952Z,12.00
2018-05-23T21:43:20.413Z,12.50
2018-05-23T21:45:48.240Z,12.27
2018-05-23T21:48:15.672Z,12.60
2018-05-23T21:50:43.128Z,12.20
2018-05-23T21:53:12.075Z,11.00
2018-05-23T21:55:40.654Z,12.23
2018-05-23T21:58:08.506Z,13.13
2018-05-23T22:00:35.938Z,12.60
2018-05-23T22:03:03.379Z,14.23
2018-05-23T22:05:31.233Z,13.50
2018-05-23T22:07:58.664Z,13.40
2018-05-23T22:10:26.872Z,12.60
2018-05-23T22:12:54.315Z,12.50
2018-05-23T22:15:22.526Z,12.67
2018-05-23T22:17:49.961Z,12.30
2018-05-23T22:20:17.435Z,10.97
2018-05-23T22:22:44.894Z,12.17
2018-05-23T22:25:12.329Z,11.90
2018-05-23T22:27:39.784Z,12.80
2018-05-23T22:30:07.616Z,12.10
2018-05-23T22:32:35.065Z,12.87
2018-05-23T22:35:03.297Z,11.93
2018-05-23T22:37:30.739Z,12.57
2018-05-23T22:39:58.186Z,13.60
2018-05-23T22:42:25.629Z,12.70
2018-05-23T22:44:53.068Z,12.00
2018-05-23T22:47:20.496Z,12.80
2018-05-23T22:49:47.952Z,12.40
2018-05-23T22:52:15.792Z,13.77
2018-05-23T22:54:43.247Z,13.10
2018-05-23T22:57:11.460Z,13.40
2018-05-23T22:59:38.914Z,13.60
2018-05-23T23:02:06.389Z,12.43
2018-05-23T23:04:35.172Z,13.67
2018-05-23T23:07:03.367Z,12.80
2018-05-23T23:09:30.809Z,12.43
2018-05-23T23:11:58.284Z,12.10
2018-05-23T23:14:26.489Z,13.70
2018-05-23T23:16:53.927Z,12.20
2018-05-23T23:19:21.377Z,12.60
2018-05-23T23:21:48.812Z,13.00
2018-05-23T23:24:16.248Z,12.50
2018-05-23T23:26:44.465Z,13.17
2018-05-23T23:29:11.900Z,11.43
2018-05-23T23:31:40.118Z,11.83
2018-05-23T23:34:07.612Z,12.50
2018-05-23T23:36:35.148Z,10.13
2018-05-23T23:39:03.334Z,11.13
2018-05-23T23:41:30.800Z,11.80
2018-05-23T23:43:58.268Z,11.37
2018-05-23T23:46:25.684Z,11.70
2018-05-23T23:48:53.137Z,11.40
2018-05-23T23:51:20.584Z,10.30
2018-05-23T23:53:48.038Z,10.30
2018-05-23T23:56:16.875Z,11.60
2018-05-23T23:58:44.327Z,10.87
